sensor_id;sensor_type;location;lat;lon;timestamp;P1;durP1;ratioP1;P2;durP2;ratioP2
13303;SDS011;6720;51.958;4.540;2023-04-24T00:01:14;5.93;;;3.40;;
13303;SDS011;6720;51.958;4.540;2023-04-24T00:03:40;7.37;;;3.40;;
13303;SDS011;6720;51.958;4.540;2023-04-24T00:06:06;3.60;;;3.27;;
13303;SDS011;6720;51.958;4.540;2023-04-24T00:08:33;3.37;;;3.07;;
13303;SDS011;6720;51.958;4.540;2023-04-24T00:10:59;6.30;;;3.27;;
13303;SDS011;6720;51.958;4.540;2023-04-24T00:13:24;5.43;;;3.37;;
13303;SDS011;6720;51.958;4.540;2023-04-24T00:15:50;4.53;;;3.17;;
13303;SDS011;6720;51.958;4.540;2023-04-24T00:18:17;4.43;;;2.93;;
13303;SDS011;6720;51.958;4.540;2023-04-24T00:20:42;5.57;;;3.00;;
13303;SDS011;6720;51.958;4.540;2023-04-24T00:23:08;4.80;;;3.10;;
13303;SDS011;6720;51.958;4.540;2023-04-24T00:25:34;3.67;;;3.37;;
13303;SDS011;6720;51.958;4.540;2023-04-24T00:48:34;4.30;;;3.30;;
13303;SDS011;6720;51.958;4.540;2023-04-24T00:51:15;4.40;;;2.77;;
13303;SDS011;6720;51.958;4.540;2023-04-24T00:54:20;4.53;;;3.20;;
13303;SDS011;6720;51.958;4.540;2023-04-24T00:57:01;3.27;;;2.97;;
13303;SDS011;6720;51.958;4.540;2023-04-24T01:00:02;5.13;;;3.77;;
13303;SDS011;6720;51.958;4.540;2023-04-24T01:03:02;4.40;;;3.70;;
13303;SDS011;6720;51.958;4.540;2023-04-24T01:05:54;5.33;;;3.40;;
13303;SDS011;6720;51.958;4.540;2023-04-24T01:08:48;4.10;;;3.67;;
13303;SDS011;6720;51.958;4.540;2023-04-24T01:11:13;4.53;;;3.77;;
13303;SDS011;6720;51.958;4.540;2023-04-24T01:13:39;5.70;;;4.20;;
13303;SDS011;6720;51.958;4.540;2023-04-24T01:16:05;6.53;;;4.07;;
13303;SDS011;6720;51.958;4.540;2023-04-24T01:18:30;5.57;;;4.20;;
13303;SDS011;6720;51.958;4.540;2023-04-24T01:20:59;6.97;;;4.33;;
13303;SDS011;6720;51.958;4.540;2023-04-24T01:23:28;4.10;;;3.40;;
13303;SDS011;6720;51.958;4.540;2023-04-24T01:25:54;5.77;;;4.00;;
13303;SDS011;6720;51.958;4.540;2023-04-24T01:28:20;5.10;;;3.80;;
13303;SDS011;6720;51.958;4.540;2023-04-24T01:30:45;6.47;;;4.20;;
13303;SDS011;6720;51.958;4.540;2023-04-24T01:33:11;5.43;;;4.50;;
13303;SDS011;6720;51.958;4.540;2023-04-24T01:35:37;6.10;;;4.43;;
13303;SDS011;6720;51.958;4.540;2023-04-24T01:38:19;5.03;;;4.57;;
13303;SDS011;6720;51.958;4.540;2023-04-24T01:41:20;4.63;;;4.20;;
13303;SDS011;6720;51.958;4.540;2023-04-24T01:44:07;5.03;;;3.63;;
13303;SDS011;6720;51.958;4.540;2023-04-24T01:46:32;4.30;;;3.90;;
13303;SDS011;6720;51.958;4.540;2023-04-24T01:49:00;4.43;;;4.03;;
13303;SDS011;6720;51.958;4.540;2023-04-24T01:51:25;5.47;;;4.90;;
13303;SDS011;6720;51.958;4.540;2023-04-24T01:53:51;5.97;;;4.27;;
13303;SDS011;6720;51.958;4.540;2023-04-24T01:56:18;4.23;;;3.83;;
13303;SDS011;6720;51.958;4.540;2023-04-24T01:58:48;4.47;;;4.07;;
13303;SDS011;6720;51.958;4.540;2023-04-24T02:01:19;4.60;;;4.07;;
13303;SDS011;6720;51.958;4.540;2023-04-24T02:03:57;5.00;;;4.47;;
13303;SDS011;6720;51.958;4.540;2023-04-24T02:06:47;5.57;;;4.93;;
13303;SDS011;6720;51.958;4.540;2023-04-24T02:09:12;6.37;;;5.30;;
13303;SDS011;6720;51.958;4.540;2023-04-24T02:11:38;5.60;;;5.00;;
13303;SDS011;6720;51.958;4.540;2023-04-24T02:14:05;6.33;;;4.50;;
13303;SDS011;6720;51.958;4.540;2023-04-24T02:16:30;4.63;;;4.20;;
13303;SDS011;6720;51.958;4.540;2023-04-24T02:19:00;4.10;;;3.23;;
13303;SDS011;6720;51.958;4.540;2023-04-24T02:21:26;4.10;;;3.70;;
13303;SDS011;6720;51.958;4.540;2023-04-24T02:23:52;3.60;;;3.30;;
13303;SDS011;6720;51.958;4.540;2023-04-24T02:26:18;3.13;;;2.80;;
13303;SDS011;6720;51.958;4.540;2023-04-24T02:28:43;3.10;;;2.87;;
13303;SDS011;6720;51.958;4.540;2023-04-24T02:31:09;3.70;;;3.27;;
13303;SDS011;6720;51.958;4.540;2023-04-24T02:33:34;3.30;;;3.00;;
13303;SDS011;6720;51.958;4.540;2023-04-24T02:36:00;3.67;;;3.30;;
13303;SDS011;6720;51.958;4.540;2023-04-24T02:38:29;3.60;;;3.30;;
13303;SDS011;6720;51.958;4.540;2023-04-24T02:40:54;4.30;;;3.90;;
13303;SDS011;6720;51.958;4.540;2023-04-24T02:43:20;5.00;;;3.93;;
13303;SDS011;6720;51.958;4.540;2023-04-24T02:45:45;4.40;;;4.00;;
13303;SDS011;6720;51.958;4.540;2023-04-24T02:48:12;5.60;;;4.20;;
13303;SDS011;6720;51.958;4.540;2023-04-24T02:50:38;4.50;;;4.10;;
13303;SDS011;6720;51.958;4.540;2023-04-24T02:53:03;5.33;;;4.20;;
13303;SDS011;6720;51.958;4.540;2023-04-24T02:55:28;4.83;;;3.70;;
13303;SDS011;6720;51.958;4.540;2023-04-24T02:57:54;7.77;;;4.00;;
13303;SDS011;6720;51.958;4.540;2023-04-24T03:00:19;5.13;;;3.10;;
13303;SDS011;6720;51.958;4.540;2023-04-24T03:02:45;5.27;;;2.60;;
13303;SDS011;6720;51.958;4.540;2023-04-24T03:05:11;2.67;;;2.47;;
13303;SDS011;6720;51.958;4.540;2023-04-24T03:07:37;2.43;;;2.23;;
13303;SDS011;6720;51.958;4.540;2023-04-24T03:10:03;3.00;;;2.30;;
13303;SDS011;6720;51.958;4.540;2023-04-24T03:12:29;2.57;;;1.90;;
13303;SDS011;6720;51.958;4.540;2023-04-24T03:14:55;2.37;;;2.00;;
13303;SDS011;6720;51.958;4.540;2023-04-24T03:17:20;2.47;;;2.10;;
13303;SDS011;6720;51.958;4.540;2023-04-24T03:19:45;3.90;;;1.90;;
13303;SDS011;6720;51.958;4.540;2023-04-24T03:22:11;2.53;;;1.90;;
13303;SDS011;6720;51.958;4.540;2023-04-24T03:24:37;3.60;;;2.30;;
13303;SDS011;6720;51.958;4.540;2023-04-24T03:27:02;2.67;;;2.10;;
13303;SDS011;6720;51.958;4.540;2023-04-24T03:29:27;3.57;;;2.20;;
13303;SDS011;6720;51.958;4.540;2023-04-24T03:31:54;4.20;;;2.37;;
13303;SDS011;6720;51.958;4.540;2023-04-24T03:34:20;4.40;;;2.70;;
13303;SDS011;6720;51.958;4.540;2023-04-24T03:36:45;4.00;;;2.80;;
13303;SDS011;6720;51.958;4.540;2023-04-24T03:39:12;3.90;;;2.77;;
13303;SDS011;6720;51.958;4.540;2023-04-24T03:41:38;4.73;;;2.83;;
13303;SDS011;6720;51.958;4.540;2023-04-24T03:44:03;4.77;;;3.00;;
13303;SDS011;6720;51.958;4.540;2023-04-24T03:46:33;2.60;;;2.40;;
13303;SDS011;6720;51.958;4.540;2023-04-24T03:48:59;3.63;;;2.63;;
13303;SDS011;6720;51.958;4.540;2023-04-24T03:51:24;4.47;;;2.67;;
13303;SDS011;6720;51.958;4.540;2023-04-24T03:53:50;3.20;;;2.63;;
13303;SDS011;6720;51.958;4.540;2023-04-24T03:56:15;3.70;;;3.20;;
13303;SDS011;6720;51.958;4.540;2023-04-24T03:58:41;5.73;;;3.10;;
13303;SDS011;6720;51.958;4.540;2023-04-24T04:01:06;5.90;;;3.20;;
13303;SDS011;6720;51.958;4.540;2023-04-24T04:03:32;4.33;;;3.00;;
13303;SDS011;6720;51.958;4.540;2023-04-24T04:05:58;3.27;;;2.20;;
13303;SDS011;6720;51.958;4.540;2023-04-24T04:08:23;2.93;;;2.53;;
13303;SDS011;6720;51.958;4.540;2023-04-24T04:10:49;3.17;;;2.77;;
13303;SDS011;6720;51.958;4.540;2023-04-24T04:13:14;2.73;;;2.40;;
13303;SDS011;6720;51.958;4.540;2023-04-24T04:15:40;3.30;;;2.43;;
13303;SDS011;6720;51.958;4.540;2023-04-24T04:18:05;2.77;;;2.00;;
13303;SDS011;6720;51.958;4.540;2023-04-24T04:20:31;3.67;;;2.70;;
13303;SDS011;6720;51.958;4.540;2023-04-24T04:22:56;5.37;;;2.77;;
13303;SDS011;6720;51.958;4.540;2023-04-24T04:25:22;3.67;;;2.97;;
13303;SDS011;6720;51.958;4.540;2023-04-24T04:27:48;4.80;;;3.07;;
13303;SDS011;6720;51.958;4.540;2023-04-24T04:30:14;3.20;;;2.90;;
13303;SDS011;6720;51.958;4.540;2023-04-24T04:32:40;7.00;;;3.27;;
13303;SDS011;6720;51.958;4.540;2023-04-24T04:35:05;5.27;;;3.50;;
13303;SDS011;6720;51.958;4.540;2023-04-24T04:37:31;4.40;;;3.27;;
13303;SDS011;6720;51.958;4.540;2023-04-24T04:39:58;5.50;;;2.80;;
13303;SDS011;6720;51.958;4.540;2023-04-24T04:42:24;5.20;;;3.50;;
13303;SDS011;6720;51.958;4.540;2023-04-24T04:44:50;6.63;;;5.70;;
13303;SDS011;6720;51.958;4.540;2023-04-24T04:47:16;6.23;;;4.53;;
13303;SDS011;6720;51.958;4.540;2023-04-24T04:49:42;12.87;;;7.17;;
13303;SDS011;6720;51.958;4.540;2023-04-24T04:52:08;7.70;;;5.13;;
13303;SDS011;6720;51.958;4.540;2023-04-24T04:54:34;9.43;;;5.30;;
13303;SDS011;6720;51.958;4.540;2023-04-24T04:57:00;6.80;;;4.70;;
13303;SDS011;6720;51.958;4.540;2023-04-24T04:59:25;12.13;;;7.70;;
13303;SDS011;6720;51.958;4.540;2023-04-24T05:01:51;9.80;;;6.37;;
13303;SDS011;6720;51.958;4.540;2023-04-24T05:04:18;10.57;;;5.80;;
13303;SDS011;6720;51.958;4.540;2023-04-24T05:06:45;10.23;;;6.77;;
13303;SDS011;6720;51.958;4.540;2023-04-24T05:09:12;11.80;;;8.23;;
13303;SDS011;6720;51.958;4.540;2023-04-24T05:11:37;17.23;;;8.97;;
13303;SDS011;6720;51.958;4.540;2023-04-24T05:14:03;15.67;;;11.27;;
13303;SDS011;6720;51.958;4.540;2023-04-24T05:16:28;18.33;;;12.53;;
13303;SDS011;6720;51.958;4.540;2023-04-24T05:18:53;19.53;;;13.27;;
13303;SDS011;6720;51.958;4.540;2023-04-24T05:21:19;20.33;;;12.93;;
13303;SDS011;6720;51.958;4.540;2023-04-24T05:23:44;18.27;;;11.90;;
13303;SDS011;6720;51.958;4.540;2023-04-24T05:26:10;23.67;;;14.53;;
13303;SDS011;6720;51.958;4.540;2023-04-24T05:28:35;17.07;;;11.97;;
13303;SDS011;6720;51.958;4.540;2023-04-24T05:31:01;20.87;;;11.50;;
13303;SDS011;6720;51.958;4.540;2023-04-24T05:33:27;18.40;;;10.83;;
13303;SDS011;6720;51.958;4.540;2023-04-24T05:35:53;21.73;;;11.63;;
13303;SDS011;6720;51.958;4.540;2023-04-24T05:38:19;15.80;;;11.93;;
13303;SDS011;6720;51.958;4.540;2023-04-24T05:40:45;23.23;;;12.73;;
13303;SDS011;6720;51.958;4.540;2023-04-24T05:43:11;21.43;;;13.00;;
13303;SDS011;6720;51.958;4.540;2023-04-24T05:45:37;17.47;;;12.50;;
13303;SDS011;6720;51.958;4.540;2023-04-24T05:48:04;16.87;;;12.13;;
13303;SDS011;6720;51.958;4.540;2023-04-24T05:50:30;19.00;;;12.80;;
13303;SDS011;6720;51.958;4.540;2023-04-24T05:52:56;21.03;;;13.07;;
13303;SDS011;6720;51.958;4.540;2023-04-24T05:55:23;20.17;;;12.87;;
13303;SDS011;6720;51.958;4.540;2023-04-24T05:57:49;18.87;;;11.97;;
13303;SDS011;6720;51.958;4.540;2023-04-24T06:00:15;22.23;;;13.10;;
13303;SDS011;6720;51.958;4.540;2023-04-24T06:02:41;19.73;;;12.20;;
13303;SDS011;6720;51.958;4.540;2023-04-24T06:05:06;20.30;;;11.40;;
13303;SDS011;6720;51.958;4.540;2023-04-24T06:07:33;17.30;;;11.00;;
13303;SDS011;6720;51.958;4.540;2023-04-24T06:09:59;22.40;;;12.53;;
13303;SDS011;6720;51.958;4.540;2023-04-24T06:12:25;18.93;;;10.83;;
13303;SDS011;6720;51.958;4.540;2023-04-24T06:14:50;19.07;;;10.47;;
13303;SDS011;6720;51.958;4.540;2023-04-24T06:17:16;20.67;;;10.33;;
13303;SDS011;6720;51.958;4.540;2023-04-24T06:19:41;24.80;;;12.23;;
13303;SDS011;6720;51.958;4.540;2023-04-24T06:22:09;26.07;;;11.70;;
13303;SDS011;6720;51.958;4.540;2023-04-24T06:24:34;18.57;;;9.60;;
13303;SDS011;6720;51.958;4.540;2023-04-24T06:27:00;16.93;;;8.10;;
13303;SDS011;6720;51.958;4.540;2023-04-24T06:29:27;23.77;;;9.10;;
13303;SDS011;6720;51.958;4.540;2023-04-24T06:31:52;23.23;;;7.83;;
13303;SDS011;6720;51.958;4.540;2023-04-24T06:34:18;20.73;;;7.97;;
13303;SDS011;6720;51.958;4.540;2023-04-24T06:36:43;19.97;;;7.47;;
13303;SDS011;6720;51.958;4.540;2023-04-24T06:39:10;21.40;;;9.60;;
13303;SDS011;6720;51.958;4.540;2023-04-24T06:41:35;19.90;;;7.90;;
13303;SDS011;6720;51.958;4.540;2023-04-24T06:44:01;24.47;;;8.67;;
13303;SDS011;6720;51.958;4.540;2023-04-24T06:46:26;18.63;;;7.40;;
13303;SDS011;6720;51.958;4.540;2023-04-24T06:48:53;15.03;;;6.97;;
13303;SDS011;6720;51.958;4.540;2023-04-24T06:51:24;17.10;;;7.27;;
13303;SDS011;6720;51.958;4.540;2023-04-24T06:53:51;18.53;;;6.90;;
13303;SDS011;6720;51.958;4.540;2023-04-24T06:56:17;25.50;;;8.00;;
13303;SDS011;6720;51.958;4.540;2023-04-24T06:58:42;22.20;;;10.57;;
13303;SDS011;6720;51.958;4.540;2023-04-24T07:01:08;21.27;;;7.47;;
13303;SDS011;6720;51.958;4.540;2023-04-24T07:03:33;22.73;;;7.33;;
13303;SDS011;6720;51.958;4.540;2023-04-24T07:05:59;17.80;;;7.87;;
13303;SDS011;6720;51.958;4.540;2023-04-24T07:08:25;21.53;;;6.77;;
13303;SDS011;6720;51.958;4.540;2023-04-24T07:10:51;19.57;;;6.53;;
13303;SDS011;6720;51.958;4.540;2023-04-24T07:13:17;21.70;;;8.63;;
13303;SDS011;6720;51.958;4.540;2023-04-24T07:15:43;12.83;;;5.33;;
13303;SDS011;6720;51.958;4.540;2023-04-24T07:18:08;24.77;;;11.43;;
13303;SDS011;6720;51.958;4.540;2023-04-24T07:20:34;23.40;;;10.30;;
13303;SDS011;6720;51.958;4.540;2023-04-24T07:23:00;15.13;;;5.33;;
13303;SDS011;6720;51.958;4.540;2023-04-24T07:25:25;16.90;;;5.10;;
13303;SDS011;6720;51.958;4.540;2023-04-24T07:27:51;18.13;;;5.73;;
13303;SDS011;6720;51.958;4.540;2023-04-24T07:30:18;17.97;;;5.90;;
13303;SDS011;6720;51.958;4.540;2023-04-24T07:32:43;21.87;;;6.87;;
13303;SDS011;6720;51.958;4.540;2023-04-24T07:35:09;17.33;;;7.10;;
13303;SDS011;6720;51.958;4.540;2023-04-24T07:37:36;15.10;;;4.90;;
13303;SDS011;6720;51.958;4.540;2023-04-24T07:40:01;15.47;;;6.77;;
13303;SDS011;6720;51.958;4.540;2023-04-24T07:42:28;17.33;;;6.53;;
13303;SDS011;6720;51.958;4.540;2023-04-24T07:44:55;12.77;;;4.93;;
13303;SDS011;6720;51.958;4.540;2023-04-24T07:47:20;18.73;;;5.80;;
13303;SDS011;6720;51.958;4.540;2023-04-24T07:49:46;15.43;;;4.60;;
13303;SDS011;6720;51.958;4.540;2023-04-24T07:52:11;13.23;;;5.10;;
13303;SDS011;6720;51.958;4.540;2023-04-24T07:54:37;16.23;;;4.90;;
13303;SDS011;6720;51.958;4.540;2023-04-24T07:57:02;15.47;;;5.90;;
13303;SDS011;6720;51.958;4.540;2023-04-24T07:59:28;14.10;;;5.17;;
13303;SDS011;6720;51.958;4.540;2023-04-24T08:01:53;17.87;;;5.03;;
13303;SDS011;6720;51.958;4.540;2023-04-24T08:04:20;14.00;;;5.23;;
13303;SDS011;6720;51.958;4.540;2023-04-24T08:06:48;13.40;;;4.13;;
13303;SDS011;6720;51.958;4.540;2023-04-24T08:09:13;14.50;;;4.17;;
13303;SDS011;6720;51.958;4.540;2023-04-24T08:11:39;15.30;;;5.17;;
13303;SDS011;6720;51.958;4.540;2023-04-24T08:14:04;10.33;;;3.97;;
13303;SDS011;6720;51.958;4.540;2023-04-24T08:16:30;11.77;;;4.20;;
13303;SDS011;6720;51.958;4.540;2023-04-24T08:18:57;11.93;;;4.33;;
13303;SDS011;6720;51.958;4.540;2023-04-24T08:21:22;8.90;;;3.80;;
13303;SDS011;6720;51.958;4.540;2023-04-24T08:23:48;12.93;;;4.33;;
13303;SDS011;6720;51.958;4.540;2023-04-24T08:26:13;12.00;;;4.50;;
13303;SDS011;6720;51.958;4.540;2023-04-24T08:28:39;13.10;;;4.10;;
13303;SDS011;6720;51.958;4.540;2023-04-24T08:31:04;11.47;;;4.37;;
13303;SDS011;6720;51.958;4.540;2023-04-24T08:33:30;10.50;;;4.20;;
13303;SDS011;6720;51.958;4.540;2023-04-24T08:36:00;12.27;;;4.47;;
13303;SDS011;6720;51.958;4.540;2023-04-24T08:38:27;15.23;;;6.60;;
13303;SDS011;6720;51.958;4.540;2023-04-24T08:40:52;13.77;;;4.80;;
13303;SDS011;6720;51.958;4.540;2023-04-24T08:43:17;14.80;;;4.87;;
13303;SDS011;6720;51.958;4.540;2023-04-24T08:45:46;10.67;;;3.80;;
13303;SDS011;6720;51.958;4.540;2023-04-24T08:48:12;10.77;;;3.60;;
13303;SDS011;6720;51.958;4.540;2023-04-24T08:50:38;11.87;;;3.57;;
13303;SDS011;6720;51.958;4.540;2023-04-24T08:53:07;7.37;;;4.40;;
13303;SDS011;6720;51.958;4.540;2023-04-24T08:55:33;11.27;;;3.87;;
13303;SDS011;6720;51.958;4.540;2023-04-24T08:58:00;8.23;;;3.20;;
13303;SDS011;6720;51.958;4.540;2023-04-24T09:00:26;5.87;;;2.60;;
13303;SDS011;6720;51.958;4.540;2023-04-24T09:02:52;4.60;;;2.50;;
13303;SDS011;6720;51.958;4.540;2023-04-24T09:05:19;5.83;;;2.80;;
13303;SDS011;6720;51.958;4.540;2023-04-24T09:07:54;3.33;;;2.43;;
13303;SDS011;6720;51.958;4.540;2023-04-24T09:10:23;6.43;;;2.70;;
13303;SDS011;6720;51.958;4.540;2023-04-24T09:12:58;6.13;;;2.70;;
13303;SDS011;6720;51.958;4.540;2023-04-24T09:15:31;9.00;;;2.70;;
13303;SDS011;6720;51.958;4.540;2023-04-24T09:18:01;6.63;;;2.97;;
13303;SDS011;6720;51.958;4.540;2023-04-24T09:20:35;6.70;;;3.17;;
13303;SDS011;6720;51.958;4.540;2023-04-24T09:23:29;5.37;;;2.60;;
13303;SDS011;6720;51.958;4.540;2023-04-24T09:25:56;4.80;;;1.87;;
13303;SDS011;6720;51.958;4.540;2023-04-24T09:28:32;4.50;;;2.20;;
13303;SDS011;6720;51.958;4.540;2023-04-24T09:31:07;4.80;;;2.43;;
13303;SDS011;6720;51.958;4.540;2023-04-24T09:33:40;8.30;;;2.77;;
13303;SDS011;6720;51.958;4.540;2023-04-24T09:36:30;5.50;;;2.23;;
13303;SDS011;6720;51.958;4.540;2023-04-24T09:39:01;8.00;;;2.27;;
13303;SDS011;6720;51.958;4.540;2023-04-24T09:41:27;7.20;;;2.30;;
13303;SDS011;6720;51.958;4.540;2023-04-24T09:44:22;4.73;;;2.50;;
13303;SDS011;6720;51.958;4.540;2023-04-24T09:46:52;6.97;;;2.70;;
13303;SDS011;6720;51.958;4.540;2023-04-24T09:49:21;6.93;;;2.23;;
13303;SDS011;6720;51.958;4.540;2023-04-24T09:51:49;7.53;;;2.43;;
13303;SDS011;6720;51.958;4.540;2023-04-24T09:54:15;9.53;;;2.70;;
13303;SDS011;6720;51.958;4.540;2023-04-24T09:56:42;6.83;;;2.37;;
13303;SDS011;6720;51.958;4.540;2023-04-24T09:59:10;6.83;;;2.40;;
13303;SDS011;6720;51.958;4.540;2023-04-24T10:01:35;5.90;;;2.20;;
13303;SDS011;6720;51.958;4.540;2023-04-24T10:04:03;8.53;;;2.40;;
13303;SDS011;6720;51.958;4.540;2023-04-24T10:06:35;7.53;;;3.33;;
13303;SDS011;6720;51.958;4.540;2023-04-24T10:09:01;4.87;;;1.90;;
13303;SDS011;6720;51.958;4.540;2023-04-24T10:11:28;6.57;;;2.60;;
13303;SDS011;6720;51.958;4.540;2023-04-24T10:13:55;6.30;;;2.40;;
13303;SDS011;6720;51.958;4.540;2023-04-24T10:16:22;7.63;;;2.80;;
13303;SDS011;6720;51.958;4.540;2023-04-24T10:18:48;5.90;;;2.33;;
13303;SDS011;6720;51.958;4.540;2023-04-24T10:21:14;6.13;;;2.13;;
13303;SDS011;6720;51.958;4.540;2023-04-24T10:23:41;7.03;;;2.97;;
13303;SDS011;6720;51.958;4.540;2023-04-24T10:26:08;6.43;;;3.13;;
13303;SDS011;6720;51.958;4.540;2023-04-24T10:28:34;5.30;;;2.30;;
13303;SDS011;6720;51.958;4.540;2023-04-24T10:31:01;5.83;;;2.40;;
13303;SDS011;6720;51.958;4.540;2023-04-24T10:33:27;11.60;;;2.93;;
13303;SDS011;6720;51.958;4.540;2023-04-24T10:35:54;9.47;;;2.60;;
13303;SDS011;6720;51.958;4.540;2023-04-24T10:38:24;10.30;;;3.47;;
13303;SDS011;6720;51.958;4.540;2023-04-24T10:40:57;11.17;;;2.60;;
13303;SDS011;6720;51.958;4.540;2023-04-24T10:43:33;7.80;;;2.80;;
13303;SDS011;6720;51.958;4.540;2023-04-24T10:46:05;8.17;;;2.70;;
13303;SDS011;6720;51.958;4.540;2023-04-24T10:48:31;8.67;;;2.90;;
13303;SDS011;6720;51.958;4.540;2023-04-24T10:50:57;6.37;;;2.77;;
13303;SDS011;6720;51.958;4.540;2023-04-24T10:53:24;10.37;;;5.00;;
13303;SDS011;6720;51.958;4.540;2023-04-24T10:56:02;7.03;;;2.73;;
13303;SDS011;6720;51.958;4.540;2023-04-24T10:58:41;7.10;;;2.50;;
13303;SDS011;6720;51.958;4.540;2023-04-24T11:03:53;7.03;;;2.10;;
13303;SDS011;6720;51.958;4.540;2023-04-24T11:06:28;6.57;;;2.50;;
13303;SDS011;6720;51.958;4.540;2023-04-24T11:08:59;9.00;;;2.50;;
13303;SDS011;6720;51.958;4.540;2023-04-24T11:11:31;7.03;;;2.63;;
13303;SDS011;6720;51.958;4.540;2023-04-24T11:16:26;4.10;;;2.13;;
13303;SDS011;6720;51.958;4.540;2023-04-24T11:19:36;6.20;;;2.17;;
13303;SDS011;6720;51.958;4.540;2023-04-24T11:27:38;2.53;;;1.87;;
13303;SDS011;6720;51.958;4.540;2023-04-24T11:30:06;6.03;;;3.50;;
13303;SDS011;6720;51.958;4.540;2023-04-24T11:32:42;3.20;;;1.83;;
13303;SDS011;6720;51.958;4.540;2023-04-24T11:37:39;5.80;;;2.23;;
13303;SDS011;6720;51.958;4.540;2023-04-24T11:40:13;5.43;;;2.10;;
13303;SDS011;6720;51.958;4.540;2023-04-24T11:42:42;4.53;;;2.00;;
13303;SDS011;6720;51.958;4.540;2023-04-24T11:45:10;4.03;;;2.30;;
13303;SDS011;6720;51.958;4.540;2023-04-24T11:47:36;6.53;;;2.10;;
13303;SDS011;6720;51.958;4.540;2023-04-24T11:50:03;8.17;;;2.53;;
13303;SDS011;6720;51.958;4.540;2023-04-24T11:52:30;6.23;;;2.70;;
13303;SDS011;6720;51.958;4.540;2023-04-24T11:54:56;7.73;;;3.03;;
13303;SDS011;6720;51.958;4.540;2023-04-24T11:57:22;4.30;;;2.47;;
13303;SDS011;6720;51.958;4.540;2023-04-24T11:59:51;8.67;;;3.43;;
13303;SDS011;6720;51.958;4.540;2023-04-24T12:02:23;7.07;;;3.10;;
13303;SDS011;6720;51.958;4.540;2023-04-24T12:04:50;8.83;;;3.10;;
13303;SDS011;6720;51.958;4.540;2023-04-24T12:07:16;9.60;;;3.10;;
13303;SDS011;6720;51.958;4.540;2023-04-24T12:09:42;7.83;;;3.07;;
13303;SDS011;6720;51.958;4.540;2023-04-24T12:12:09;7.67;;;3.50;;
13303;SDS011;6720;51.958;4.540;2023-04-24T12:14:47;6.47;;;2.80;;
13303;SDS011;6720;51.958;4.540;2023-04-24T12:17:30;5.07;;;2.60;;
13303;SDS011;6720;51.958;4.540;2023-04-24T12:19:57;7.93;;;2.70;;
13303;SDS011;6720;51.958;4.540;2023-04-24T12:22:24;10.07;;;3.57;;
13303;SDS011;6720;51.958;4.540;2023-04-24T12:24:56;11.07;;;4.00;;
13303;SDS011;6720;51.958;4.540;2023-04-24T12:27:27;12.43;;;4.37;;
13303;SDS011;6720;51.958;4.540;2023-04-24T12:29:58;9.00;;;3.83;;
13303;SDS011;6720;51.958;4.540;2023-04-24T12:32:24;7.90;;;3.63;;
13303;SDS011;6720;51.958;4.540;2023-04-24T12:34:53;10.13;;;4.33;;
13303;SDS011;6720;51.958;4.540;2023-04-24T12:37:20;11.10;;;3.70;;
13303;SDS011;6720;51.958;4.540;2023-04-24T12:40:02;11.80;;;4.07;;
13303;SDS011;6720;51.958;4.540;2023-04-24T12:42:30;10.83;;;4.07;;
13303;SDS011;6720;51.958;4.540;2023-04-24T12:45:00;13.10;;;4.10;;
13303;SDS011;6720;51.958;4.540;2023-04-24T12:47:28;9.90;;;3.47;;
13303;SDS011;6720;51.958;4.540;2023-04-24T12:49:54;12.13;;;4.20;;
13303;SDS011;6720;51.958;4.540;2023-04-24T12:52:20;8.67;;;3.67;;
13303;SDS011;6720;51.958;4.540;2023-04-24T12:54:47;9.63;;;4.00;;
13303;SDS011;6720;51.958;4.540;2023-04-24T12:57:12;10.13;;;3.63;;
13303;SDS011;6720;51.958;4.540;2023-04-24T12:59:38;10.43;;;3.90;;
13303;SDS011;6720;51.958;4.540;2023-04-24T13:02:04;13.20;;;4.10;;
13303;SDS011;6720;51.958;4.540;2023-04-24T13:04:31;13.23;;;4.53;;
13303;SDS011;6720;51.958;4.540;2023-04-24T13:06:57;11.83;;;3.97;;
13303;SDS011;6720;51.958;4.540;2023-04-24T13:09:22;12.53;;;3.70;;
13303;SDS011;6720;51.958;4.540;2023-04-24T13:11:48;8.50;;;4.20;;
13303;SDS011;6720;51.958;4.540;2023-04-24T13:14:14;10.13;;;4.90;;
13303;SDS011;6720;51.958;4.540;2023-04-24T13:16:40;10.07;;;4.33;;
13303;SDS011;6720;51.958;4.540;2023-04-24T13:19:05;11.57;;;4.30;;
13303;SDS011;6720;51.958;4.540;2023-04-24T13:21:31;11.90;;;4.23;;
13303;SDS011;6720;51.958;4.540;2023-04-24T13:23:56;7.17;;;3.50;;
13303;SDS011;6720;51.958;4.540;2023-04-24T13:26:22;12.33;;;4.10;;
13303;SDS011;6720;51.958;4.540;2023-04-24T13:28:48;9.50;;;4.23;;
13303;SDS011;6720;51.958;4.540;2023-04-24T13:31:13;10.20;;;3.80;;
13303;SDS011;6720;51.958;4.540;2023-04-24T13:33:39;8.50;;;3.70;;
13303;SDS011;6720;51.958;4.540;2023-04-24T13:36:05;7.10;;;3.63;;
13303;SDS011;6720;51.958;4.540;2023-04-24T13:38:30;11.50;;;4.63;;
13303;SDS011;6720;51.958;4.540;2023-04-24T13:40:56;11.07;;;4.63;;
13303;SDS011;6720;51.958;4.540;2023-04-24T13:43:21;11.67;;;4.10;;
13303;SDS011;6720;51.958;4.540;2023-04-24T13:45:47;12.23;;;4.40;;
13303;SDS011;6720;51.958;4.540;2023-04-24T13:48:12;11.13;;;4.00;;
13303;SDS011;6720;51.958;4.540;2023-04-24T13:50:40;9.93;;;4.77;;
13303;SDS011;6720;51.958;4.540;2023-04-24T13:53:06;5.43;;;3.27;;
13303;SDS011;6720;51.958;4.540;2023-04-24T13:55:31;9.67;;;4.23;;
13303;SDS011;6720;51.958;4.540;2023-04-24T13:57:57;8.47;;;4.20;;
13303;SDS011;6720;51.958;4.540;2023-04-24T14:00:23;8.77;;;4.40;;
13303;SDS011;6720;51.958;4.540;2023-04-24T14:02:48;11.37;;;4.67;;
13303;SDS011;6720;51.958;4.540;2023-04-24T14:05:13;11.03;;;4.00;;
13303;SDS011;6720;51.958;4.540;2023-04-24T14:07:40;8.63;;;4.10;;
13303;SDS011;6720;51.958;4.540;2023-04-24T14:10:06;11.80;;;4.20;;
13303;SDS011;6720;51.958;4.540;2023-04-24T14:12:32;14.53;;;5.10;;
13303;SDS011;6720;51.958;4.540;2023-04-24T14:14:58;16.03;;;5.03;;
13303;SDS011;6720;51.958;4.540;2023-04-24T14:17:23;11.27;;;4.27;;
13303;SDS011;6720;51.958;4.540;2023-04-24T14:19:49;13.20;;;5.00;;
13303;SDS011;6720;51.958;4.540;2023-04-24T14:22:17;17.73;;;6.50;;
13303;SDS011;6720;51.958;4.540;2023-04-24T14:24:42;12.73;;;5.03;;
13303;SDS011;6720;51.958;4.540;2023-04-24T14:27:08;13.03;;;5.10;;
13303;SDS011;6720;51.958;4.540;2023-04-24T14:29:33;15.03;;;6.13;;
13303;SDS011;6720;51.958;4.540;2023-04-24T14:31:59;13.80;;;6.10;;
13303;SDS011;6720;51.958;4.540;2023-04-24T14:34:24;11.40;;;5.37;;
13303;SDS011;6720;51.958;4.540;2023-04-24T14:36:49;11.73;;;5.33;;
13303;SDS011;6720;51.958;4.540;2023-04-24T14:39:15;16.23;;;5.73;;
13303;SDS011;6720;51.958;4.540;2023-04-24T14:41:40;16.03;;;5.80;;
13303;SDS011;6720;51.958;4.540;2023-04-24T14:44:06;14.30;;;5.03;;
13303;SDS011;6720;51.958;4.540;2023-04-24T14:46:31;12.20;;;5.20;;
13303;SDS011;6720;51.958;4.540;2023-04-24T14:48:57;16.33;;;5.10;;
13303;SDS011;6720;51.958;4.540;2023-04-24T14:51:23;11.83;;;5.17;;
13303;SDS011;6720;51.958;4.540;2023-04-24T14:53:48;11.20;;;4.77;;
13303;SDS011;6720;51.958;4.540;2023-04-24T14:56:14;10.73;;;4.43;;
13303;SDS011;6720;51.958;4.540;2023-04-24T14:58:40;12.73;;;4.90;;
13303;SDS011;6720;51.958;4.540;2023-04-24T15:01:05;12.13;;;4.73;;
13303;SDS011;6720;51.958;4.540;2023-04-24T15:03:31;10.27;;;4.57;;
13303;SDS011;6720;51.958;4.540;2023-04-24T15:05:56;11.50;;;4.90;;
13303;SDS011;6720;51.958;4.540;2023-04-24T15:08:22;13.47;;;5.47;;
13303;SDS011;6720;51.958;4.540;2023-04-24T15:10:47;13.40;;;5.40;;
13303;SDS011;6720;51.958;4.540;2023-04-24T15:13:13;12.13;;;4.87;;
13303;SDS011;6720;51.958;4.540;2023-04-24T15:15:39;15.23;;;5.33;;
13303;SDS011;6720;51.958;4.540;2023-04-24T15:18:05;9.37;;;5.40;;
13303;SDS011;6720;51.958;4.540;2023-04-24T15:20:33;10.77;;;5.00;;
13303;SDS011;6720;51.958;4.540;2023-04-24T15:22:59;12.00;;;5.83;;
13303;SDS011;6720;51.958;4.540;2023-04-24T15:25:25;16.70;;;8.33;;
13303;SDS011;6720;51.958;4.540;2023-04-24T15:27:50;16.27;;;5.97;;
13303;SDS011;6720;51.958;4.540;2023-04-24T15:30:16;16.03;;;6.40;;